sensor_id;sensor_type;location;lat;lon;timestamp;temperature;humidity
38592;DHT22;24356;48.460;11.450;2023-06-22T00:01:18;18.60;79.40
38592;DHT22;24356;48.460;11.450;2023-06-22T00:03:44;18.60;79.30
38592;DHT22;24356;48.460;11.450;2023-06-22T00:06:10;18.60;79.50
38592;DHT22;24356;48.460;11.450;2023-06-22T00:08:35;18.60;79.40
38592;DHT22;24356;48.460;11.450;2023-06-22T00:11:01;18.50;79.40
38592;DHT22;24356;48.460;11.450;2023-06-22T00:13:26;18.50;79.40
38592;DHT22;24356;48.460;11.450;2023-06-22T00:15:52;18.50;79.50
38592;DHT22;24356;48.460;11.450;2023-06-22T00:18:17;18.50;79.60
38592;DHT22;24356;48.460;11.450;2023-06-22T00:20:44;18.50;79.30
38592;DHT22;24356;48.460;11.450;2023-06-22T00:23:11;18.50;79.40
38592;DHT22;24356;48.460;11.450;2023-06-22T00:25:40;18.40;79.50
38592;DHT22;24356;48.460;11.450;2023-06-22T00:28:06;18.40;79.40
38592;DHT22;24356;48.460;11.450;2023-06-22T00:30:33;18.40;79.40
38592;DHT22;24356;48.460;11.450;2023-06-22T00:33:00;18.40;79.60
38592;DHT22;24356;48.460;11.450;2023-06-22T00:35:26;18.40;79.20
38592;DHT22;24356;48.460;11.450;2023-06-22T00:37:59;18.40;79.20
38592;DHT22;24356;48.460;11.450;2023-06-22T00:40:31;18.40;79.00
38592;DHT22;24356;48.460;11.450;2023-06-22T00:42:57;18.40;79.10
38592;DHT22;24356;48.460;11.450;2023-06-22T00:45:24;18.40;79.00
38592;DHT22;24356;48.460;11.450;2023-06-22T00:47:52;18.40;78.90
38592;DHT22;24356;48.460;11.450;2023-06-22T00:50:23;18.40;78.90
38592;DHT22;24356;48.460;11.450;2023-06-22T00:52:57;18.40;79.20
38592;DHT22;24356;48.460;11.450;2023-06-22T00:55:25;18.30;79.40
38592;DHT22;24356;48.460;11.450;2023-06-22T00:57:54;18.40;78.90
38592;DHT22;24356;48.460;11.450;2023-06-22T01:00:24;18.30;78.80
38592;DHT22;24356;48.460;11.450;2023-06-22T01:02:51;18.30;78.70
38592;DHT22;24356;48.460;11.450;2023-06-22T01:05:19;18.30;78.80
38592;DHT22;24356;48.460;11.450;2023-06-22T01:13:16;18.30;78.90
38592;DHT22;24356;48.460;11.450;2023-06-22T01:18:29;18.20;78.90
38592;DHT22;24356;48.460;11.450;2023-06-22T01:20:56;18.20;79.00
38592;DHT22;24356;48.460;11.450;2023-06-22T01:23:27;18.20;79.00
38592;DHT22;24356;48.460;11.450;2023-06-22T01:29:00;18.20;79.20
38592;DHT22;24356;48.460;11.450;2023-06-22T01:31:28;18.20;79.40
38592;DHT22;24356;48.460;11.450;2023-06-22T01:33:59;18.20;79.80
38592;DHT22;24356;48.460;11.450;2023-06-22T01:36:27;18.20;79.10
38592;DHT22;24356;48.460;11.450;2023-06-22T01:38:53;18.10;79.20
38592;DHT22;24356;48.460;11.450;2023-06-22T01:41:20;18.10;79.00
38592;DHT22;24356;48.460;11.450;2023-06-22T01:43:47;18.10;78.90
38592;DHT22;24356;48.460;11.450;2023-06-22T01:46:15;18.10;78.80
38592;DHT22;24356;48.460;11.450;2023-06-22T01:48:41;18.10;78.80
38592;DHT22;24356;48.460;11.450;2023-06-22T01:51:07;18.10;78.70
38592;DHT22;24356;48.460;11.450;2023-06-22T01:53:33;18.10;78.80
38592;DHT22;24356;48.460;11.450;2023-06-22T01:55:59;18.10;78.70
38592;DHT22;24356;48.460;11.450;2023-06-22T01:58:27;18.10;78.70
38592;DHT22;24356;48.460;11.450;2023-06-22T02:01:10;18.10;78.90
38592;DHT22;24356;48.460;11.450;2023-06-22T02:03:41;18.10;78.80
38592;DHT22;24356;48.460;11.450;2023-06-22T02:06:17;18.10;78.70
38592;DHT22;24356;48.460;11.450;2023-06-22T02:08:48;18.10;78.80
38592;DHT22;24356;48.460;11.450;2023-06-22T02:11:17;18.00;78.70
38592;DHT22;24356;48.460;11.450;2023-06-22T02:13:44;18.00;78.80
38592;DHT22;24356;48.460;11.450;2023-06-22T02:16:11;18.00;79.00
38592;DHT22;24356;48.460;11.450;2023-06-22T02:18:37;18.00;79.00
38592;DHT22;24356;48.460;11.450;2023-06-22T02:21:03;18.00;79.00
38592;DHT22;24356;48.460;11.450;2023-06-22T02:23:28;18.00;79.20
38592;DHT22;24356;48.460;11.450;2023-06-22T02:25:54;17.90;79.20
38592;DHT22;24356;48.460;11.450;2023-06-22T02:28:19;17.90;79.30
38592;DHT22;24356;48.460;11.450;2023-06-22T02:30:45;17.90;79.30
38592;DHT22;24356;48.460;11.450;2023-06-22T02:33:11;17.90;79.30
38592;DHT22;24356;48.460;11.450;2023-06-22T02:35:37;17.90;79.30
38592;DHT22;24356;48.460;11.450;2023-06-22T02:38:03;17.90;79.30
38592;DHT22;24356;48.460;11.450;2023-06-22T02:40:29;17.80;79.30
38592;DHT22;24356;48.460;11.450;2023-06-22T02:42:56;17.80;79.30
38592;DHT22;24356;48.460;11.450;2023-06-22T02:45:23;17.80;79.30
38592;DHT22;24356;48.460;11.450;2023-06-22T02:47:49;17.80;79.40
38592;DHT22;24356;48.460;11.450;2023-06-22T02:50:15;17.80;79.40
38592;DHT22;24356;48.460;11.450;2023-06-22T02:52:40;17.80;79.50
38592;DHT22;24356;48.460;11.450;2023-06-22T02:55:06;17.80;79.40
38592;DHT22;24356;48.460;11.450;2023-06-22T02:57:33;17.70;79.40
38592;DHT22;24356;48.460;11.450;2023-06-22T02:59:59;17.70;79.40
38592;DHT22;24356;48.460;11.450;2023-06-22T03:02:25;17.70;79.40
38592;DHT22;24356;48.460;11.450;2023-06-22T03:04:52;17.70;79.50
38592;DHT22;24356;48.460;11.450;2023-06-22T03:07:19;17.70;79.40
38592;DHT22;24356;48.460;11.450;2023-06-22T03:09:45;17.70;79.40
38592;DHT22;24356;48.460;11.450;2023-06-22T03:12:10;17.70;79.50
38592;DHT22;24356;48.460;11.450;2023-06-22T03:14:36;17.70;79.60
38592;DHT22;24356;48.460;11.450;2023-06-22T03:17:02;17.70;79.60
38592;DHT22;24356;48.460;11.450;2023-06-22T03:19:29;17.60;79.60
38592;DHT22;24356;48.460;11.450;2023-06-22T03:21:57;17.60;79.50
38592;DHT22;24356;48.460;11.450;2023-06-22T03:24:22;17.60;79.50
38592;DHT22;24356;48.460;11.450;2023-06-22T03:26:48;17.60;79.50
38592;DHT22;24356;48.460;11.450;2023-06-22T03:29:14;17.60;79.60
38592;DHT22;24356;48.460;11.450;2023-06-22T03:31:42;17.60;79.60
38592;DHT22;24356;48.460;11.450;2023-06-22T03:34:08;17.50;79.60
38592;DHT22;24356;48.460;11.450;2023-06-22T03:36:34;17.50;79.60
38592;DHT22;24356;48.460;11.450;2023-06-22T03:38:59;17.50;79.50
38592;DHT22;24356;48.460;11.450;2023-06-22T03:41:25;17.50;79.70
38592;DHT22;24356;48.460;11.450;2023-06-22T03:43:50;17.50;79.60
38592;DHT22;24356;48.460;11.450;2023-06-22T03:46:16;17.50;79.70
38592;DHT22;24356;48.460;11.450;2023-06-22T03:48:42;17.50;79.70
38592;DHT22;24356;48.460;11.450;2023-06-22T03:51:07;17.50;79.70
38592;DHT22;24356;48.460;11.450;2023-06-22T03:53:33;17.50;79.70
38592;DHT22;24356;48.460;11.450;2023-06-22T03:55:58;17.40;79.70
38592;DHT22;24356;48.460;11.450;2023-06-22T03:58:24;17.40;79.70
38592;DHT22;24356;48.460;11.450;2023-06-22T04:00:51;17.40;79.70
38592;DHT22;24356;48.460;11.450;2023-06-22T04:03:17;17.40;79.70
38592;DHT22;24356;48.460;11.450;2023-06-22T04:05:47;17.40;79.80
38592;DHT22;24356;48.460;11.450;2023-06-22T04:08:15;17.40;79.50
38592;DHT22;24356;48.460;11.450;2023-06-22T04:10:41;17.40;79.70
38592;DHT22;24356;48.460;11.450;2023-06-22T04:13:07;17.40;79.70
38592;DHT22;24356;48.460;11.450;2023-06-22T04:15:33;17.40;79.50
38592;DHT22;24356;48.460;11.450;2023-06-22T04:17:58;17.40;79.50
38592;DHT22;24356;48.460;11.450;2023-06-22T04:20:24;17.40;79.50
38592;DHT22;24356;48.460;11.450;2023-06-22T04:22:54;17.40;79.50
38592;DHT22;24356;48.460;11.450;2023-06-22T04:25:20;17.50;79.50
38592;DHT22;24356;48.460;11.450;2023-06-22T04:27:46;17.50;79.30
38592;DHT22;24356;48.460;11.450;2023-06-22T04:30:12;17.50;79.30
38592;DHT22;24356;48.460;11.450;2023-06-22T04:32:40;17.50;79.20
38592;DHT22;24356;48.460;11.450;2023-06-22T04:35:07;17.50;79.00
38592;DHT22;24356;48.460;11.450;2023-06-22T04:37:33;17.50;79.00
38592;DHT22;24356;48.460;11.450;2023-06-22T04:39:59;17.50;79.20
38592;DHT22;24356;48.460;11.450;2023-06-22T04:42:26;17.50;79.90
38592;DHT22;24356;48.460;11.450;2023-06-22T04:44:53;17.60;79.10
38592;DHT22;24356;48.460;11.450;2023-06-22T04:47:19;17.60;79.50
38592;DHT22;24356;48.460;11.450;2023-06-22T04:49:45;17.60;79.60
38592;DHT22;24356;48.460;11.450;2023-06-22T04:52:12;17.60;79.30
38592;DHT22;24356;48.460;11.450;2023-06-22T04:54:39;17.60;79.30
38592;DHT22;24356;48.460;11.450;2023-06-22T04:57:07;17.70;78.90
38592;DHT22;24356;48.460;11.450;2023-06-22T04:59:37;17.70;79.40
38592;DHT22;24356;48.460;11.450;2023-06-22T05:02:05;17.70;79.40
38592;DHT22;24356;48.460;11.450;2023-06-22T05:04:32;17.80;79.20
38592;DHT22;24356;48.460;11.450;2023-06-22T05:06:59;17.80;79.50
38592;DHT22;24356;48.460;11.450;2023-06-22T05:09:29;17.80;80.40
38592;DHT22;24356;48.460;11.450;2023-06-22T05:11:55;17.80;79.40
38592;DHT22;24356;48.460;11.450;2023-06-22T05:14:25;17.90;79.60
38592;DHT22;24356;48.460;11.450;2023-06-22T05:16:50;17.90;79.70
38592;DHT22;24356;48.460;11.450;2023-06-22T05:19:17;18.00;79.70
38592;DHT22;24356;48.460;11.450;2023-06-22T05:21:43;18.00;80.00
38592;DHT22;24356;48.460;11.450;2023-06-22T05:24:08;18.00;79.80
38592;DHT22;24356;48.460;11.450;2023-06-22T05:26:34;18.00;79.50
38592;DHT22;24356;48.460;11.450;2023-06-22T05:29:01;18.10;80.10
38592;DHT22;24356;48.460;11.450;2023-06-22T05:31:28;18.10;79.50
38592;DHT22;24356;48.460;11.450;2023-06-22T05:33:54;18.10;79.90
38592;DHT22;24356;48.460;11.450;2023-06-22T05:36:20;18.20;79.70
38592;DHT22;24356;48.460;11.450;2023-06-22T05:38:47;18.20;79.50
38592;DHT22;24356;48.460;11.450;2023-06-22T05:41:14;18.20;79.70
38592;DHT22;24356;48.460;11.450;2023-06-22T05:43:40;18.20;80.00
38592;DHT22;24356;48.460;11.450;2023-06-22T05:46:06;18.30;80.20
38592;DHT22;24356;48.460;11.450;2023-06-22T05:48:32;18.30;79.90
38592;DHT22;24356;48.460;11.450;2023-06-22T05:50:58;18.40;80.20
38592;DHT22;24356;48.460;11.450;2023-06-22T05:53:24;18.40;80.50
38592;DHT22;24356;48.460;11.450;2023-06-22T05:55:51;18.40;80.40
38592;DHT22;24356;48.460;11.450;2023-06-22T05:58:16;18.50;80.70
38592;DHT22;24356;48.460;11.450;2023-06-22T06:00:42;18.50;80.90
38592;DHT22;24356;48.460;11.450;2023-06-22T06:03:09;18.50;80.80
38592;DHT22;24356;48.460;11.450;2023-06-22T06:05:36;18.60;80.70
38592;DHT22;24356;48.460;11.450;2023-06-22T06:08:05;18.60;81.20
38592;DHT22;24356;48.460;11.450;2023-06-22T06:10:32;18.70;80.50
38592;DHT22;24356;48.460;11.450;2023-06-22T06:12:59;18.80;80.30
38592;DHT22;24356;48.460;11.450;2023-06-22T06:15:28;18.90;80.50
38592;DHT22;24356;48.460;11.450;2023-06-22T06:17:53;19.00;80.80
38592;DHT22;24356;48.460;11.450;2023-06-22T06:20:22;19.10;80.50
38592;DHT22;24356;48.460;11.450;2023-06-22T06:22:49;19.10;80.30
38592;DHT22;24356;48.460;11.450;2023-06-22T06:25:15;19.20;80.20
38592;DHT22;24356;48.460;11.450;2023-06-22T06:27:44;19.30;80.10
38592;DHT22;24356;48.460;11.450;2023-06-22T06:30:11;19.40;80.10
38592;DHT22;24356;48.460;11.450;2023-06-22T06:32:37;19.50;79.80
38592;DHT22;24356;48.460;11.450;2023-06-22T06:35:05;19.60;80.00
38592;DHT22;24356;48.460;11.450;2023-06-22T06:37:31;19.70;80.40
38592;DHT22;24356;48.460;11.450;2023-06-22T06:39:56;19.80;80.00
38592;DHT22;24356;48.460;11.450;2023-06-22T06:42:22;19.80;80.10
38592;DHT22;24356;48.460;11.450;2023-06-22T06:44:49;19.90;80.00
38592;DHT22;24356;48.460;11.450;2023-06-22T06:47:15;20.00;80.00
38592;DHT22;24356;48.460;11.450;2023-06-22T06:49:42;20.10;79.90
38592;DHT22;24356;48.460;11.450;2023-06-22T06:52:08;20.20;80.40
38592;DHT22;24356;48.460;11.450;2023-06-22T06:54:33;20.30;79.80
38592;DHT22;24356;48.460;11.450;2023-06-22T06:56:59;20.40;80.60
38592;DHT22;24356;48.460;11.450;2023-06-22T06:59:26;20.50;80.40
38592;DHT22;24356;48.460;11.450;2023-06-22T07:01:51;20.60;80.40
38592;DHT22;24356;48.460;11.450;2023-06-22T07:04:17;20.70;80.30
38592;DHT22;24356;48.460;11.450;2023-06-22T07:06:42;20.90;80.60
38592;DHT22;24356;48.460;11.450;2023-06-22T07:09:08;21.00;80.60
38592;DHT22;24356;48.460;11.450;2023-06-22T07:11:35;21.10;80.40
38592;DHT22;24356;48.460;11.450;2023-06-22T07:14:03;21.20;80.30
38592;DHT22;24356;48.460;11.450;2023-06-22T07:16:28;21.40;80.30
38592;DHT22;24356;48.460;11.450;2023-06-22T07:18:55;21.50;80.40
38592;DHT22;24356;48.460;11.450;2023-06-22T07:21:21;21.60;80.10
38592;DHT22;24356;48.460;11.450;2023-06-22T07:23:46;21.80;79.90
38592;DHT22;24356;48.460;11.450;2023-06-22T07:26:12;21.90;79.80
38592;DHT22;24356;48.460;11.450;2023-06-22T07:28:38;22.00;79.80
38592;DHT22;24356;48.460;11.450;2023-06-22T07:31:06;22.20;80.10
38592;DHT22;24356;48.460;11.450;2023-06-22T07:33:32;22.30;79.90
38592;DHT22;24356;48.460;11.450;2023-06-22T07:35:57;22.50;80.20
38592;DHT22;24356;48.460;11.450;2023-06-22T07:38:23;22.70;79.50
38592;DHT22;24356;48.460;11.450;2023-06-22T07:40:49;22.90;79.70
38592;DHT22;24356;48.460;11.450;2023-06-22T07:43:16;23.00;79.50
38592;DHT22;24356;48.460;11.450;2023-06-22T07:45:50;23.20;79.20
38592;DHT22;24356;48.460;11.450;2023-06-22T07:48:19;23.30;78.80
38592;DHT22;24356;48.460;11.450;2023-06-22T07:50:45;23.50;78.60
38592;DHT22;24356;48.460;11.450;2023-06-22T07:53:11;23.60;78.40
38592;DHT22;24356;48.460;11.450;2023-06-22T07:55:36;23.80;78.60
38592;DHT22;24356;48.460;11.450;2023-06-22T07:58:02;24.00;78.40
38592;DHT22;24356;48.460;11.450;2023-06-22T08:00:27;24.10;77.70
38592;DHT22;24356;48.460;11.450;2023-06-22T08:02:54;24.30;78.00
38592;DHT22;24356;48.460;11.450;2023-06-22T08:05:21;24.40;77.60
38592;DHT22;24356;48.460;11.450;2023-06-22T08:07:47;24.60;77.40
38592;DHT22;24356;48.460;11.450;2023-06-22T08:10:12;24.80;77.20
38592;DHT22;24356;48.460;11.450;2023-06-22T08:12:39;24.90;76.90
38592;DHT22;24356;48.460;11.450;2023-06-22T08:15:06;25.10;76.80
38592;DHT22;24356;48.460;11.450;2023-06-22T08:17:33;25.30;76.70
38592;DHT22;24356;48.460;11.450;2023-06-22T08:19:58;25.40;76.60
38592;DHT22;24356;48.460;11.450;2023-06-22T08:22:24;25.60;76.50
38592;DHT22;24356;48.460;11.450;2023-06-22T08:24:50;25.80;76.20
38592;DHT22;24356;48.460;11.450;2023-06-22T08:27:16;25.90;76.10
38592;DHT22;24356;48.460;11.450;2023-06-22T08:29:43;26.10;75.70
38592;DHT22;24356;48.460;11.450;2023-06-22T08:32:11;26.30;74.80
38592;DHT22;24356;48.460;11.450;2023-06-22T08:34:37;26.40;75.70
38592;DHT22;24356;48.460;11.450;2023-06-22T08:37:05;26.60;75.10
38592;DHT22;24356;48.460;11.450;2023-06-22T08:39:32;26.70;75.50
38592;DHT22;24356;48.460;11.450;2023-06-22T08:41:57;26.90;74.80
38592;DHT22;24356;48.460;11.450;2023-06-22T08:44:23;27.00;74.30
38592;DHT22;24356;48.460;11.450;2023-06-22T08:46:48;27.10;74.30
38592;DHT22;24356;48.460;11.450;2023-06-22T08:49:14;27.30;74.00
38592;DHT22;24356;48.460;11.450;2023-06-22T08:51:40;27.40;74.20
38592;DHT22;24356;48.460;11.450;2023-06-22T08:54:06;27.60;74.20
38592;DHT22;24356;48.460;11.450;2023-06-22T08:56:31;27.70;74.20
38592;DHT22;24356;48.460;11.450;2023-06-22T08:58:58;27.80;74.20
38592;DHT22;24356;48.460;11.450;2023-06-22T09:01:24;27.90;73.90
38592;DHT22;24356;48.460;11.450;2023-06-22T09:03:49;28.00;74.00
38592;DHT22;24356;48.460;11.450;2023-06-22T09:06:20;28.10;73.80
38592;DHT22;24356;48.460;11.450;2023-06-22T09:08:47;28.30;73.60
38592;DHT22;24356;48.460;11.450;2023-06-22T09:11:13;28.40;72.70
38592;DHT22;24356;48.460;11.450;2023-06-22T09:13:38;28.50;73.50
38592;DHT22;24356;48.460;11.450;2023-06-22T09:16:04;28.50;73.60
38592;DHT22;24356;48.460;11.450;2023-06-22T09:18:30;28.60;73.80
38592;DHT22;24356;48.460;11.450;2023-06-22T09:20:55;28.70;73.30
38592;DHT22;24356;48.460;11.450;2023-06-22T09:23:22;28.80;73.80
38592;DHT22;24356;48.460;11.450;2023-06-22T09:25:49;29.00;72.90
38592;DHT22;24356;48.460;11.450;2023-06-22T09:28:15;29.10;72.60
38592;DHT22;24356;48.460;11.450;2023-06-22T09:30:43;29.20;73.30
38592;DHT22;24356;48.460;11.450;2023-06-22T09:33:10;29.30;73.00
38592;DHT22;24356;48.460;11.450;2023-06-22T09:35:35;29.40;72.70
38592;DHT22;24356;48.460;11.450;2023-06-22T09:38:01;29.50;72.00
38592;DHT22;24356;48.460;11.450;2023-06-22T09:40:26;29.70;72.60
38592;DHT22;24356;48.460;11.450;2023-06-22T09:42:52;29.80;73.30
38592;DHT22;24356;48.460;11.450;2023-06-22T09:45:17;29.90;73.20
38592;DHT22;24356;48.460;11.450;2023-06-22T09:47:44;30.00;73.70
38592;DHT22;24356;48.460;11.450;2023-06-22T09:50:10;30.10;72.90
38592;DHT22;24356;48.460;11.450;2023-06-22T09:52:36;30.30;73.30
38592;DHT22;24356;48.460;11.450;2023-06-22T09:55:01;30.40;73.60
38592;DHT22;24356;48.460;11.450;2023-06-22T09:57:29;30.50;73.90
38592;DHT22;24356;48.460;11.450;2023-06-22T09:59:54;30.60;74.00
38592;DHT22;24356;48.460;11.450;2023-06-22T10:02:20;30.70;74.00
38592;DHT22;24356;48.460;11.450;2023-06-22T10:04:46;30.80;74.00
38592;DHT22;24356;48.460;11.450;2023-06-22T10:07:11;30.90;73.80
38592;DHT22;24356;48.460;11.450;2023-06-22T10:12:12;31.10;72.30
38592;DHT22;24356;48.460;11.450;2023-06-22T10:14:38;31.20;72.00
38592;DHT22;24356;48.460;11.450;2023-06-22T10:17:04;31.30;72.50
38592;DHT22;24356;48.460;11.450;2023-06-22T10:19:29;31.40;71.40
38592;DHT22;24356;48.460;11.450;2023-06-22T10:21:55;31.40;72.20
38592;DHT22;24356;48.460;11.450;2023-06-22T10:24:21;31.50;72.00
38592;DHT22;24356;48.460;11.450;2023-06-22T10:26:47;31.60;72.40
38592;DHT22;24356;48.460;11.450;2023-06-22T10:29:13;31.60;72.10
38592;DHT22;24356;48.460;11.450;2023-06-22T10:31:38;31.70;71.40
38592;DHT22;24356;48.460;11.450;2023-06-22T10:34:04;31.80;71.40
38592;DHT22;24356;48.460;11.450;2023-06-22T10:36:30;31.90;71.40
38592;DHT22;24356;48.460;11.450;2023-06-22T10:38:55;32.00;71.20
38592;DHT22;24356;48.460;11.450;2023-06-22T10:41:21;32.10;70.20
38592;DHT22;24356;48.460;11.450;2023-06-22T10:43:46;32.20;70.90
38592;DHT22;24356;48.460;11.450;2023-06-22T10:46:12;32.30;70.20
38592;DHT22;24356;48.460;11.450;2023-06-22T10:48:38;32.40;69.50
38592;DHT22;24356;48.460;11.450;2023-06-22T10:51:03;32.60;68.50
38592;DHT22;24356;48.460;11.450;2023-06-22T10:53:29;32.70;68.10
38592;DHT22;24356;48.460;11.450;2023-06-22T10:55:54;32.90;68.30
38592;DHT22;24356;48.460;11.450;2023-06-22T10:58:20;33.00;69.10
38592;DHT22;24356;48.460;11.450;2023-06-22T11:00:46;33.20;68.00
38592;DHT22;24356;48.460;11.450;2023-06-22T11:03:11;33.30;66.70
38592;DHT22;24356;48.460;11.450;2023-06-22T11:05:38;33.40;65.50
38592;DHT22;24356;48.460;11.450;2023-06-22T11:08:04;33.40;64.70
38592;DHT22;24356;48.460;11.450;2023-06-22T11:10:29;33.40;65.60
38592;DHT22;24356;48.460;11.450;2023-06-22T11:12:55;33.40;64.30
38592;DHT22;24356;48.460;11.450;2023-06-22T11:15:23;33.40;64.30
38592;DHT22;24356;48.460;11.450;2023-06-22T11:17:49;33.40;64.70
38592;DHT22;24356;48.460;11.450;2023-06-22T11:20:14;33.50;64.60
38592;DHT22;24356;48.460;11.450;2023-06-22T11:22:41;33.60;64.10
38592;DHT22;24356;48.460;11.450;2023-06-22T11:25:07;33.70;64.00
38592;DHT22;24356;48.460;11.450;2023-06-22T11:27:33;33.70;63.40
38592;DHT22;24356;48.460;11.450;2023-06-22T11:30:00;33.80;63.40
38592;DHT22;24356;48.460;11.450;2023-06-22T11:32:26;33.90;63.30
38592;DHT22;24356;48.460;11.450;2023-06-22T11:34:51;34.00;63.10
38592;DHT22;24356;48.460;11.450;2023-06-22T11:37:17;34.10;62.80
38592;DHT22;24356;48.460;11.450;2023-06-22T11:39:43;34.20;63.00
38592;DHT22;24356;48.460;11.450;2023-06-22T11:42:09;34.20;62.40
38592;DHT22;24356;48.460;11.450;2023-06-22T11:44:35;34.20;62.20
38592;DHT22;24356;48.460;11.450;2023-06-22T11:47:00;34.20;62.50
38592;DHT22;24356;48.460;11.450;2023-06-22T11:49:28;34.30;62.00
38592;DHT22;24356;48.460;11.450;2023-06-22T11:51:53;34.30;61.80
38592;DHT22;24356;48.460;11.450;2023-06-22T11:54:19;34.40;61.80
38592;DHT22;24356;48.460;11.450;2023-06-22T11:56:44;34.40;61.50
38592;DHT22;24356;48.460;11.450;2023-06-22T11:59:10;34.50;61.50
38592;DHT22;24356;48.460;11.450;2023-06-22T12:01:35;34.60;61.70
38592;DHT22;24356;48.460;11.450;2023-06-22T12:04:02;34.60;61.60
38592;DHT22;24356;48.460;11.450;2023-06-22T12:06:31;34.70;61.40
38592;DHT22;24356;48.460;11.450;2023-06-22T12:08:56;34.80;61.40
38592;DHT22;24356;48.460;11.450;2023-06-22T12:11:22;34.80;61.30
38592;DHT22;24356;48.460;11.450;2023-06-22T12:13:47;34.90;61.30
38592;DHT22;24356;48.460;11.450;2023-06-22T12:16:13;34.90;61.20
38592;DHT22;24356;48.460;11.450;2023-06-22T12:18:38;35.00;61.20
38592;DHT22;24356;48.460;11.450;2023-06-22T12:21:04;35.10;61.10
38592;DHT22;24356;48.460;11.450;2023-06-22T12:23:30;35.20;60.90
38592;DHT22;24356;48.460;11.450;2023-06-22T12:25:55;35.20;60.50
38592;DHT22;24356;48.460;11.450;2023-06-22T12:28:21;35.30;60.50
38592;DHT22;24356;48.460;11.450;2023-06-22T12:30:48;35.30;60.20
38592;DHT22;24356;48.460;11.450;2023-06-22T12:33:14;35.30;60.30
38592;DHT22;24356;48.460;11.450;2023-06-22T12:35:39;35.30;60.50
38592;DHT22;24356;48.460;11.450;2023-06-22T12:38:05;35.30;60.50
38592;DHT22;24356;48.460;11.450;2023-06-22T12:40:32;35.20;60.60
38592;DHT22;24356;48.460;11.450;2023-06-22T12:42:58;35.20;60.50
38592;DHT22;24356;48.460;11.450;2023-06-22T12:45:24;35.10;60.50
38592;DHT22;24356;48.460;11.450;2023-06-22T12:47:50;35.10;60.50
38592;DHT22;24356;48.460;11.450;2023-06-22T12:50:16;35.10;60.50
38592;DHT22;24356;48.460;11.450;2023-06-22T12:52:41;35.10;60.60
38592;DHT22;24356;48.460;11.450;2023-06-22T12:55:08;35.10;60.60
38592;DHT22;24356;48.460;11.450;2023-06-22T12:57:33;35.00;60.60
38592;DHT22;24356;48.460;11.450;2023-06-22T12:59:59;35.00;60.50
38592;DHT22;24356;48.460;11.450;2023-06-22T13:02:25;34.90;60.50
38592;DHT22;24356;48.460;11.450;2023-06-22T13:04:51;34.90;60.60
38592;DHT22;24356;48.460;11.450;2023-06-22T13:07:17;34.90;60.50
38592;DHT22;24356;48.460;11.450;2023-06-22T13:09:42;34.90;60.40
38592;DHT22;24356;48.460;11.450;2023-06-22T13:12:08;34.90;60.70
38592;DHT22;24356;48.460;11.450;2023-06-22T13:14:34;34.90;60.90
38592;DHT22;24356;48.460;11.450;2023-06-22T13:16:59;35.00;60.90
38592;DHT22;24356;48.460;11.450;2023-06-22T13:19:25;35.00;61.00
38592;DHT22;24356;48.460;11.450;2023-06-22T13:21:54;35.00;61.00
38592;DHT22;24356;48.460;11.450;2023-06-22T13:24:19;35.00;61.00
38592;DHT22;24356;48.460;11.450;2023-06-22T13:26:45;35.00;61.30
38592;DHT22;24356;48.460;11.450;2023-06-22T13:29:11;35.00;61.40
38592;DHT22;24356;48.460;11.450;2023-06-22T13:31:37;35.10;61.20
38592;DHT22;24356;48.460;11.450;2023-06-22T13:34:03;35.10;61.50
38592;DHT22;24356;48.460;11.450;2023-06-22T13:36:29;35.20;61.60
38592;DHT22;24356;48.460;11.450;2023-06-22T13:38:56;35.30;61.60
38592;DHT22;24356;48.460;11.450;2023-06-22T13:41:21;35.40;61.80
38592;DHT22;24356;48.460;11.450;2023-06-22T13:43:47;35.50;61.80
38592;DHT22;24356;48.460;11.450;2023-06-22T13:46:12;35.50;61.80
38592;DHT22;24356;48.460;11.450;2023-06-22T13:48:38;35.60;61.70
38592;DHT22;24356;48.460;11.450;2023-06-22T13:51:03;35.60;62.20
38592;DHT22;24356;48.460;11.450;2023-06-22T13:53:29;35.70;62.40
38592;DHT22;24356;48.460;11.450;2023-06-22T13:55:55;35.80;62.80
38592;DHT22;24356;48.460;11.450;2023-06-22T13:58:21;36.00;62.20
38592;DHT22;24356;48.460;11.450;2023-06-22T14:00:47;36.10;62.80
38592;DHT22;24356;48.460;11.450;2023-06-22T14:03:14;36.20;63.50
38592;DHT22;24356;48.460;11.450;2023-06-22T14:05:42;36.30;63.80
38592;DHT22;24356;48.460;11.450;2023-06-22T14:08:08;36.40;64.20
38592;DHT22;24356;48.460;11.450;2023-06-22T14:10:45;36.50;64.30
38592;DHT22;24356;48.460;11.450;2023-06-22T14:16:50;36.80;64.20
38592;DHT22;24356;48.460;11.450;2023-06-22T14:19:18;36.90;63.60
38592;DHT22;24356;48.460;11.450;2023-06-22T14:21:44;37.00;64.10
38592;DHT22;24356;48.460;11.450;2023-06-22T14:24:10;37.00;63.90
38592;DHT22;24356;48.460;11.450;2023-06-22T14:26:35;37.10;63.90
38592;DHT22;24356;48.460;11.450;2023-06-22T14:29:01;37.20;63.90
38592;DHT22;24356;48.460;11.450;2023-06-22T14:31:26;37.20;63.80
38592;DHT22;24356;48.460;11.450;2023-06-22T14:33:52;37.30;63.90
38592;DHT22;24356;48.460;11.450;2023-06-22T14:36:18;37.40;63.70
38592;DHT22;24356;48.460;11.450;2023-06-22T14:38:44;37.40;63.50
38592;DHT22;24356;48.460;11.450;2023-06-22T14:41:12;37.50;63.40
38592;DHT22;24356;48.460;11.450;2023-06-22T14:47:09;37.60;63.60
38592;DHT22;24356;48.460;11.450;2023-06-22T14:50:02;37.70;63.40
38592;DHT22;24356;48.460;11.450;2023-06-22T14:52:31;37.80;63.40
38592;DHT22;24356;48.460;11.450;2023-06-22T14:58:48;37.90;62.80
38592;DHT22;24356;48.460;11.450;2023-06-22T15:01:56;37.90;62.80
38592;DHT22;24356;48.460;11.450;2023-06-22T15:04:42;38.00;62.70
38592;DHT22;24356;48.460;11.450;2023-06-22T15:07:08;38.00;63.00
38592;DHT22;24356;48.460;11.450;2023-06-22T15:09:33;38.00;62.90
38592;DHT22;24356;48.460;11.450;2023-06-22T15:11:59;38.00;62.60
38592;DHT22;24356;48.460;11.450;2023-06-22T15:14:27;38.00;62.30
38592;DHT22;24356;48.460;11.450;2023-06-22T15:16:53;38.00;62.30
38592;DHT22;24356;48.460;11.450;2023-06-22T15:19:18;38.00;62.10
38592;DHT22;24356;48.460;11.450;2023-06-22T15:21:44;37.90;62.10
38592;DHT22;24356;48.460;11.450;2023-06-22T15:24:09;37.90;61.80
38592;DHT22;24356;48.460;11.450;2023-06-22T15:26:35;37.90;61.30
38592;DHT22;24356;48.460;11.450;2023-06-22T15:29:00;37.90;61.60
38592;DHT22;24356;48.460;11.450;2023-06-22T15:31:27;37.90;61.60
38592;DHT22;24356;48.460;11.450;2023-06-22T15:33:52;37.80;61.60
38592;DHT22;24356;48.460;11.450;2023-06-22T15:36:18;37.80;61.70